sensor_id;sensor_type;location;lat;lon;timestamp;temperature;humidity
14170;DHT22;7164;50.524;8.676;2022-07-23T00:02:00;22.10;99.90
14170;DHT22;7164;50.524;8.676;2022-07-23T00:04:26;22.00;99.90
14170;DHT22;7164;50.524;8.676;2022-07-23T00:06:51;22.00;99.90
14170;DHT22;7164;50.524;8.676;2022-07-23T00:09:17;22.10;99.90
14170;DHT22;7164;50.524;8.676;2022-07-23T00:11:43;22.20;99.90
14170;DHT22;7164;50.524;8.676;2022-07-23T00:14:08;22.30;99.90
14170;DHT22;7164;50.524;8.676;2022-07-23T00:16:34;22.30;99.90
14170;DHT22;7164;50.524;8.676;2022-07-23T00:18:59;22.30;99.90
14170;DHT22;7164;50.524;8.676;2022-07-23T00:21:26;22.20;99.90
14170;DHT22;7164;50.524;8.676;2022-07-23T00:23:52;22.30;99.90
14170;DHT22;7164;50.524;8.676;2022-07-23T00:26:18;22.20;99.90
14170;DHT22;7164;50.524;8.676;2022-07-23T00:28:43;22.20;99.90
14170;DHT22;7164;50.524;8.676;2022-07-23T00:31:09;22.00;99.90
14170;DHT22;7164;50.524;8.676;2022-07-23T00:33:34;22.00;99.90
14170;DHT22;7164;50.524;8.676;2022-07-23T00:36:00;21.80;99.90
14170;DHT22;7164;50.524;8.676;2022-07-23T00:38:26;21.80;99.90
14170;DHT22;7164;50.524;8.676;2022-07-23T00:40:51;21.80;99.90
14170;DHT22;7164;50.524;8.676;2022-07-23T00:43:20;21.70;99.90
14170;DHT22;7164;50.524;8.676;2022-07-23T00:45:46;21.60;99.90
14170;DHT22;7164;50.524;8.676;2022-07-23T00:48:11;21.60;99.90
14170;DHT22;7164;50.524;8.676;2022-07-23T00:50:37;21.80;99.90
14170;DHT22;7164;50.524;8.676;2022-07-23T00:53:03;21.60;99.90
14170;DHT22;7164;50.524;8.676;2022-07-23T00:55:29;21.70;99.90
14170;DHT22;7164;50.524;8.676;2022-07-23T00:57:55;21.50;99.90
14170;DHT22;7164;50.524;8.676;2022-07-23T01:00:22;21.30;99.90
14170;DHT22;7164;50.524;8.676;2022-07-23T01:02:47;21.20;99.90
14170;DHT22;7164;50.524;8.676;2022-07-23T01:05:13;21.20;99.90
14170;DHT22;7164;50.524;8.676;2022-07-23T01:07:39;21.10;99.90
14170;DHT22;7164;50.524;8.676;2022-07-23T01:10:05;21.10;99.90
14170;DHT22;7164;50.524;8.676;2022-07-23T01:12:51;21.00;99.90
14170;DHT22;7164;50.524;8.676;2022-07-23T01:15:16;21.00;99.90
14170;DHT22;7164;50.524;8.676;2022-07-23T01:17:42;21.10;99.90
14170;DHT22;7164;50.524;8.676;2022-07-23T01:20:08;21.20;99.90
14170;DHT22;7164;50.524;8.676;2022-07-23T01:22:34;21.20;99.90
14170;DHT22;7164;50.524;8.676;2022-07-23T01:24:59;21.30;99.90
14170;DHT22;7164;50.524;8.676;2022-07-23T01:27:25;21.40;99.90
14170;DHT22;7164;50.524;8.676;2022-07-23T01:29:50;21.40;99.90
14170;DHT22;7164;50.524;8.676;2022-07-23T01:32:16;21.40;99.90
14170;DHT22;7164;50.524;8.676;2022-07-23T01:34:42;21.30;99.90
14170;DHT22;7164;50.524;8.676;2022-07-23T01:37:07;21.40;99.90
14170;DHT22;7164;50.524;8.676;2022-07-23T01:39:33;21.40;99.90
14170;DHT22;7164;50.524;8.676;2022-07-23T01:41:59;21.20;99.90
14170;DHT22;7164;50.524;8.676;2022-07-23T01:44:24;21.20;99.90
14170;DHT22;7164;50.524;8.676;2022-07-23T01:46:50;21.20;99.90
14170;DHT22;7164;50.524;8.676;2022-07-23T01:49:15;21.10;99.90
14170;DHT22;7164;50.524;8.676;2022-07-23T01:51:41;21.20;99.90
14170;DHT22;7164;50.524;8.676;2022-07-23T01:54:33;21.10;99.90
14170;DHT22;7164;50.524;8.676;2022-07-23T01:57:00;21.20;99.90
14170;DHT22;7164;50.524;8.676;2022-07-23T01:59:26;21.10;99.90
14170;DHT22;7164;50.524;8.676;2022-07-23T02:01:52;21.10;99.90
14170;DHT22;7164;50.524;8.676;2022-07-23T02:04:18;21.10;99.90
14170;DHT22;7164;50.524;8.676;2022-07-23T02:06:44;21.10;99.90
14170;DHT22;7164;50.524;8.676;2022-07-23T02:09:10;21.20;99.90
14170;DHT22;7164;50.524;8.676;2022-07-23T02:11:35;21.10;99.90
14170;DHT22;7164;50.524;8.676;2022-07-23T02:14:01;21.10;99.90
14170;DHT22;7164;50.524;8.676;2022-07-23T02:16:27;21.10;99.90
14170;DHT22;7164;50.524;8.676;2022-07-23T02:18:52;21.10;99.90
14170;DHT22;7164;50.524;8.676;2022-07-23T02:21:18;21.10;99.90
14170;DHT22;7164;50.524;8.676;2022-07-23T02:23:43;21.00;99.90
14170;DHT22;7164;50.524;8.676;2022-07-23T02:26:09;21.00;99.90
14170;DHT22;7164;50.524;8.676;2022-07-23T02:28:35;21.00;99.90
14170;DHT22;7164;50.524;8.676;2022-07-23T02:31:00;20.90;99.90
14170;DHT22;7164;50.524;8.676;2022-07-23T02:33:26;20.90;99.90
14170;DHT22;7164;50.524;8.676;2022-07-23T02:35:52;20.90;99.90
14170;DHT22;7164;50.524;8.676;2022-07-23T02:38:17;20.90;99.90
14170;DHT22;7164;50.524;8.676;2022-07-23T02:40:43;20.90;99.90
14170;DHT22;7164;50.524;8.676;2022-07-23T02:43:08;20.90;99.90
14170;DHT22;7164;50.524;8.676;2022-07-23T02:45:34;20.90;99.90
14170;DHT22;7164;50.524;8.676;2022-07-23T02:47:59;20.90;99.90
14170;DHT22;7164;50.524;8.676;2022-07-23T02:50:25;20.90;99.90
14170;DHT22;7164;50.524;8.676;2022-07-23T02:52:51;20.90;99.90
14170;DHT22;7164;50.524;8.676;2022-07-23T02:55:16;20.80;99.90
14170;DHT22;7164;50.524;8.676;2022-07-23T02:57:42;20.80;99.90
14170;DHT22;7164;50.524;8.676;2022-07-23T03:00:08;20.80;99.90
14170;DHT22;7164;50.524;8.676;2022-07-23T03:02:34;20.60;99.90
14170;DHT22;7164;50.524;8.676;2022-07-23T03:04:59;20.60;99.90
14170;DHT22;7164;50.524;8.676;2022-07-23T03:07:25;20.50;99.90
14170;DHT22;7164;50.524;8.676;2022-07-23T03:09:50;20.60;99.90
14170;DHT22;7164;50.524;8.676;2022-07-23T03:12:16;20.50;99.90
14170;DHT22;7164;50.524;8.676;2022-07-23T03:14:42;20.50;99.90
14170;DHT22;7164;50.524;8.676;2022-07-23T03:17:08;20.50;99.90
14170;DHT22;7164;50.524;8.676;2022-07-23T03:19:33;20.50;99.90
14170;DHT22;7164;50.524;8.676;2022-07-23T03:21:59;20.50;99.90
14170;DHT22;7164;50.524;8.676;2022-07-23T03:24:25;20.40;99.90
14170;DHT22;7164;50.524;8.676;2022-07-23T03:27:10;20.30;99.90
14170;DHT22;7164;50.524;8.676;2022-07-23T03:29:36;20.30;99.90
14170;DHT22;7164;50.524;8.676;2022-07-23T03:32:03;20.20;99.90
14170;DHT22;7164;50.524;8.676;2022-07-23T03:34:29;20.20;99.90
14170;DHT22;7164;50.524;8.676;2022-07-23T03:36:54;20.30;99.90
14170;DHT22;7164;50.524;8.676;2022-07-23T03:39:20;20.20;99.90
14170;DHT22;7164;50.524;8.676;2022-07-23T03:41:45;20.20;99.90
14170;DHT22;7164;50.524;8.676;2022-07-23T03:44:11;20.30;99.90
14170;DHT22;7164;50.524;8.676;2022-07-23T03:46:36;20.30;99.90
14170;DHT22;7164;50.524;8.676;2022-07-23T03:49:02;20.30;99.90
14170;DHT22;7164;50.524;8.676;2022-07-23T03:51:28;20.40;99.90
14170;DHT22;7164;50.524;8.676;2022-07-23T03:53:53;20.40;99.90
14170;DHT22;7164;50.524;8.676;2022-07-23T03:56:21;20.50;99.90
14170;DHT22;7164;50.524;8.676;2022-07-23T03:58:46;20.40;99.90
14170;DHT22;7164;50.524;8.676;2022-07-23T04:01:12;20.40;99.90
14170;DHT22;7164;50.524;8.676;2022-07-23T04:03:38;20.40;99.90
14170;DHT22;7164;50.524;8.676;2022-07-23T04:06:04;20.40;99.90
14170;DHT22;7164;50.524;8.676;2022-07-23T04:08:29;20.50;99.90
14170;DHT22;7164;50.524;8.676;2022-07-23T04:10:55;20.50;99.90
14170;DHT22;7164;50.524;8.676;2022-07-23T04:13:21;20.40;99.90
14170;DHT22;7164;50.524;8.676;2022-07-23T04:15:46;20.30;99.90
14170;DHT22;7164;50.524;8.676;2022-07-23T04:18:12;20.30;99.90
14170;DHT22;7164;50.524;8.676;2022-07-23T04:20:37;20.30;99.90
14170;DHT22;7164;50.524;8.676;2022-07-23T04:23:03;20.30;99.90
14170;DHT22;7164;50.524;8.676;2022-07-23T04:25:29;20.30;99.90
14170;DHT22;7164;50.524;8.676;2022-07-23T04:27:54;20.40;99.90
14170;DHT22;7164;50.524;8.676;2022-07-23T04:30:20;20.30;99.90
14170;DHT22;7164;50.524;8.676;2022-07-23T04:32:46;20.30;99.90
14170;DHT22;7164;50.524;8.676;2022-07-23T04:35:11;20.60;99.90
14170;DHT22;7164;50.524;8.676;2022-07-23T04:37:37;20.80;99.90
14170;DHT22;7164;50.524;8.676;2022-07-23T04:40:03;20.80;99.90
14170;DHT22;7164;50.524;8.676;2022-07-23T04:42:29;21.10;99.90
14170;DHT22;7164;50.524;8.676;2022-07-23T04:44:54;21.30;99.90
14170;DHT22;7164;50.524;8.676;2022-07-23T04:47:20;21.40;99.90
14170;DHT22;7164;50.524;8.676;2022-07-23T04:49:45;21.80;99.90
14170;DHT22;7164;50.524;8.676;2022-07-23T04:52:11;21.80;99.90
14170;DHT22;7164;50.524;8.676;2022-07-23T04:54:37;21.90;99.90
14170;DHT22;7164;50.524;8.676;2022-07-23T04:57:02;22.10;99.90
14170;DHT22;7164;50.524;8.676;2022-07-23T04:59:28;22.30;99.90
14170;DHT22;7164;50.524;8.676;2022-07-23T05:01:54;22.50;99.90
14170;DHT22;7164;50.524;8.676;2022-07-23T05:04:19;22.80;99.90
14170;DHT22;7164;50.524;8.676;2022-07-23T05:06:45;23.00;99.90
14170;DHT22;7164;50.524;8.676;2022-07-23T05:09:10;23.10;99.90
14170;DHT22;7164;50.524;8.676;2022-07-23T05:11:36;23.30;99.90
14170;DHT22;7164;50.524;8.676;2022-07-23T05:14:22;23.50;99.90
14170;DHT22;7164;50.524;8.676;2022-07-23T05:16:47;23.70;99.90
14170;DHT22;7164;50.524;8.676;2022-07-23T05:19:13;23.90;99.90
14170;DHT22;7164;50.524;8.676;2022-07-23T05:21:39;24.00;99.90
14170;DHT22;7164;50.524;8.676;2022-07-23T05:24:05;24.10;99.90
14170;DHT22;7164;50.524;8.676;2022-07-23T05:26:31;24.40;99.90
14170;DHT22;7164;50.524;8.676;2022-07-23T05:28:56;24.80;99.90
14170;DHT22;7164;50.524;8.676;2022-07-23T05:31:22;25.20;99.90
14170;DHT22;7164;50.524;8.676;2022-07-23T05:33:48;25.30;99.90
14170;DHT22;7164;50.524;8.676;2022-07-23T05:36:13;25.60;99.90
14170;DHT22;7164;50.524;8.676;2022-07-23T05:38:39;25.70;99.90
14170;DHT22;7164;50.524;8.676;2022-07-23T05:41:05;26.10;99.90
14170;DHT22;7164;50.524;8.676;2022-07-23T05:43:30;26.30;99.90
14170;DHT22;7164;50.524;8.676;2022-07-23T05:45:56;26.70;99.90
14170;DHT22;7164;50.524;8.676;2022-07-23T05:48:21;27.10;99.90
14170;DHT22;7164;50.524;8.676;2022-07-23T05:50:47;27.40;99.90
14170;DHT22;7164;50.524;8.676;2022-07-23T05:53:13;27.50;99.90
14170;DHT22;7164;50.524;8.676;2022-07-23T05:55:39;27.70;99.90
14170;DHT22;7164;50.524;8.676;2022-07-23T05:58:05;27.90;99.90
14170;DHT22;7164;50.524;8.676;2022-07-23T06:00:30;28.30;99.90
14170;DHT22;7164;50.524;8.676;2022-07-23T06:02:56;28.50;99.90
14170;DHT22;7164;50.524;8.676;2022-07-23T06:05:22;28.80;99.90
14170;DHT22;7164;50.524;8.676;2022-07-23T06:07:49;29.20;99.90
14170;DHT22;7164;50.524;8.676;2022-07-23T06:10:14;29.60;99.90
14170;DHT22;7164;50.524;8.676;2022-07-23T06:12:40;29.40;99.90
14170;DHT22;7164;50.524;8.676;2022-07-23T06:15:07;29.70;99.90
14170;DHT22;7164;50.524;8.676;2022-07-23T06:17:32;30.10;99.90
14170;DHT22;7164;50.524;8.676;2022-07-23T06:19:58;30.60;99.90
14170;DHT22;7164;50.524;8.676;2022-07-23T06:22:24;30.80;99.90
14170;DHT22;7164;50.524;8.676;2022-07-23T06:24:50;31.20;99.90
14170;DHT22;7164;50.524;8.676;2022-07-23T06:27:17;31.50;99.90
14170;DHT22;7164;50.524;8.676;2022-07-23T06:29:43;32.00;98.70
14170;DHT22;7164;50.524;8.676;2022-07-23T06:32:08;32.30;98.90
14170;DHT22;7164;50.524;8.676;2022-07-23T06:34:34;32.50;96.50
14170;DHT22;7164;50.524;8.676;2022-07-23T06:37:00;32.40;95.00
14170;DHT22;7164;50.524;8.676;2022-07-23T06:39:26;32.00;96.90
14170;DHT22;7164;50.524;8.676;2022-07-23T06:41:52;32.30;95.90
14170;DHT22;7164;50.524;8.676;2022-07-23T06:44:18;32.60;94.90
14170;DHT22;7164;50.524;8.676;2022-07-23T06:46:43;33.00;93.80
14170;DHT22;7164;50.524;8.676;2022-07-23T06:49:09;32.60;93.10
14170;DHT22;7164;50.524;8.676;2022-07-23T06:51:35;32.50;93.50
14170;DHT22;7164;50.524;8.676;2022-07-23T06:54:01;32.50;92.70
14170;DHT22;7164;50.524;8.676;2022-07-23T06:56:26;32.50;92.40
14170;DHT22;7164;50.524;8.676;2022-07-23T06:58:52;32.30;92.30
14170;DHT22;7164;50.524;8.676;2022-07-23T07:01:19;32.00;93.00
14170;DHT22;7164;50.524;8.676;2022-07-23T07:03:44;32.20;92.80
14170;DHT22;7164;50.524;8.676;2022-07-23T07:06:10;32.10;91.80
14170;DHT22;7164;50.524;8.676;2022-07-23T07:08:36;32.00;91.90
14170;DHT22;7164;50.524;8.676;2022-07-23T07:11:02;31.90;91.80
14170;DHT22;7164;50.524;8.676;2022-07-23T07:13:28;32.20;92.10
14170;DHT22;7164;50.524;8.676;2022-07-23T07:15:53;33.00;91.10
14170;DHT22;7164;50.524;8.676;2022-07-23T07:18:19;33.70;90.40
14170;DHT22;7164;50.524;8.676;2022-07-23T07:20:45;34.40;89.30
14170;DHT22;7164;50.524;8.676;2022-07-23T07:23:10;35.10;86.00
14170;DHT22;7164;50.524;8.676;2022-07-23T07:25:37;35.10;84.70
14170;DHT22;7164;50.524;8.676;2022-07-23T07:28:03;34.80;82.90
14170;DHT22;7164;50.524;8.676;2022-07-23T07:30:28;33.80;84.10
14170;DHT22;7164;50.524;8.676;2022-07-23T07:32:54;33.50;85.20
14170;DHT22;7164;50.524;8.676;2022-07-23T07:35:19;33.10;84.40
14170;DHT22;7164;50.524;8.676;2022-07-23T07:37:45;33.20;84.70
14170;DHT22;7164;50.524;8.676;2022-07-23T07:40:11;33.10;82.10
14170;DHT22;7164;50.524;8.676;2022-07-23T07:42:51;32.80;85.30
14170;DHT22;7164;50.524;8.676;2022-07-23T07:45:17;33.70;83.10
14170;DHT22;7164;50.524;8.676;2022-07-23T07:47:45;34.80;80.80
14170;DHT22;7164;50.524;8.676;2022-07-23T07:50:10;35.00;80.40
14170;DHT22;7164;50.524;8.676;2022-07-23T07:52:36;34.00;80.60
14170;DHT22;7164;50.524;8.676;2022-07-23T07:55:06;34.80;78.00
14170;DHT22;7164;50.524;8.676;2022-07-23T07:57:32;35.80;76.50
14170;DHT22;7164;50.524;8.676;2022-07-23T07:59:57;36.60;73.00
14170;DHT22;7164;50.524;8.676;2022-07-23T08:02:23;37.60;70.90
14170;DHT22;7164;50.524;8.676;2022-07-23T08:04:49;37.90;69.80
14170;DHT22;7164;50.524;8.676;2022-07-23T08:07:15;38.40;68.90
14170;DHT22;7164;50.524;8.676;2022-07-23T08:09:41;39.50;68.50
14170;DHT22;7164;50.524;8.676;2022-07-23T08:12:06;39.90;63.30
14170;DHT22;7164;50.524;8.676;2022-07-23T08:14:32;38.20;64.10
14170;DHT22;7164;50.524;8.676;2022-07-23T08:16:58;36.50;66.30
14170;DHT22;7164;50.524;8.676;2022-07-23T08:19:23;35.70;67.00
14170;DHT22;7164;50.524;8.676;2022-07-23T08:21:49;36.90;68.00
14170;DHT22;7164;50.524;8.676;2022-07-23T08:24:15;35.90;66.90
14170;DHT22;7164;50.524;8.676;2022-07-23T08:26:40;35.70;68.30
14170;DHT22;7164;50.524;8.676;2022-07-23T08:29:06;36.80;66.40
14170;DHT22;7164;50.524;8.676;2022-07-23T08:31:32;37.70;65.40
14170;DHT22;7164;50.524;8.676;2022-07-23T08:33:59;38.90;65.30
14170;DHT22;7164;50.524;8.676;2022-07-23T08:36:24;40.00;60.60
14170;DHT22;7164;50.524;8.676;2022-07-23T08:38:53;39.60;61.10
14170;DHT22;7164;50.524;8.676;2022-07-23T08:41:19;40.70;59.00
14170;DHT22;7164;50.524;8.676;2022-07-23T08:43:46;41.30;57.40
14170;DHT22;7164;50.524;8.676;2022-07-23T08:49:33;41.90;56.00
14170;DHT22;7164;50.524;8.676;2022-07-23T08:51:59;42.60;55.00
14170;DHT22;7164;50.524;8.676;2022-07-23T08:54:25;42.60;54.70
14170;DHT22;7164;50.524;8.676;2022-07-23T08:56:51;42.70;53.90
14170;DHT22;7164;50.524;8.676;2022-07-23T08:59:16;42.90;54.40
14170;DHT22;7164;50.524;8.676;2022-07-23T09:01:42;43.50;52.90
14170;DHT22;7164;50.524;8.676;2022-07-23T09:04:08;43.60;53.00
14170;DHT22;7164;50.524;8.676;2022-07-23T09:06:34;43.70;50.40
14170;DHT22;7164;50.524;8.676;2022-07-23T09:09:16;42.90;51.70
14170;DHT22;7164;50.524;8.676;2022-07-23T09:11:46;40.80;52.10
14170;DHT22;7164;50.524;8.676;2022-07-23T09:14:12;39.60;53.70
14170;DHT22;7164;50.524;8.676;2022-07-23T09:16:37;40.50;53.90
14170;DHT22;7164;50.524;8.676;2022-07-23T09:19:05;41.40;54.60
14170;DHT22;7164;50.524;8.676;2022-07-23T09:21:38;42.60;51.80
14170;DHT22;7164;50.524;8.676;2022-07-23T09:24:11;43.70;50.50
14170;DHT22;7164;50.524;8.676;2022-07-23T09:26:46;44.20;49.20
14170;DHT22;7164;50.524;8.676;2022-07-23T09:29:25;44.40;49.00
14170;DHT22;7164;50.524;8.676;2022-07-23T09:31:56;44.80;48.30
14170;DHT22;7164;50.524;8.676;2022-07-23T09:34:26;45.00;47.50
14170;DHT22;7164;50.524;8.676;2022-07-23T09:36:57;44.90;47.70
14170;DHT22;7164;50.524;8.676;2022-07-23T09:39:29;45.30;47.20
14170;DHT22;7164;50.524;8.676;2022-07-23T09:41:54;45.30;47.70
14170;DHT22;7164;50.524;8.676;2022-07-23T09:44:20;42.40;48.30
14170;DHT22;7164;50.524;8.676;2022-07-23T09:46:48;41.80;50.60
14170;DHT22;7164;50.524;8.676;2022-07-23T09:49:19;42.30;48.30
14170;DHT22;7164;50.524;8.676;2022-07-23T09:51:50;41.60;50.00
14170;DHT22;7164;50.524;8.676;2022-07-23T09:54:25;42.40;49.30
14170;DHT22;7164;50.524;8.676;2022-07-23T09:56:53;43.00;49.50
14170;DHT22;7164;50.524;8.676;2022-07-23T09:59:22;43.30;48.30
14170;DHT22;7164;50.524;8.676;2022-07-23T10:01:48;43.20;49.60
14170;DHT22;7164;50.524;8.676;2022-07-23T10:04:15;43.00;48.20
14170;DHT22;7164;50.524;8.676;2022-07-23T10:06:43;42.20;49.20
14170;DHT22;7164;50.524;8.676;2022-07-23T10:09:12;43.10;48.90
14170;DHT22;7164;50.524;8.676;2022-07-23T10:11:37;42.90;48.50
14170;DHT22;7164;50.524;8.676;2022-07-23T10:14:04;41.00;50.10
14170;DHT22;7164;50.524;8.676;2022-07-23T10:16:31;40.90;50.50
14170;DHT22;7164;50.524;8.676;2022-07-23T10:18:57;41.30;50.10
14170;DHT22;7164;50.524;8.676;2022-07-23T10:24:36;42.70;49.90
14170;DHT22;7164;50.524;8.676;2022-07-23T10:29:52;42.80;49.40
14170;DHT22;7164;50.524;8.676;2022-07-23T10:35:33;41.00;50.50
14170;DHT22;7164;50.524;8.676;2022-07-23T10:38:25;40.70;50.70
14170;DHT22;7164;50.524;8.676;2022-07-23T10:43:20;39.80;51.10
14170;DHT22;7164;50.524;8.676;2022-07-23T10:45:46;39.40;52.50
14170;DHT22;7164;50.524;8.676;2022-07-23T10:50:40;38.80;52.50
14170;DHT22;7164;50.524;8.676;2022-07-23T10:58:01;36.30;56.50
14170;DHT22;7164;50.524;8.676;2022-07-23T11:00:28;36.10;57.30
14170;DHT22;7164;50.524;8.676;2022-07-23T11:02:59;35.80;58.70
14170;DHT22;7164;50.524;8.676;2022-07-23T11:05:38;35.70;57.60
14170;DHT22;7164;50.524;8.676;2022-07-23T11:13:31;34.70;58.70
14170;DHT22;7164;50.524;8.676;2022-07-23T11:24:00;34.30;59.30
14170;DHT22;7164;50.524;8.676;2022-07-23T11:34:42;33.40;60.60
14170;DHT22;7164;50.524;8.676;2022-07-23T11:37:11;33.50;60.80
14170;DHT22;7164;50.524;8.676;2022-07-23T11:39:38;33.40;59.90
14170;DHT22;7164;50.524;8.676;2022-07-23T11:42:05;33.40;61.20
14170;DHT22;7164;50.524;8.676;2022-07-23T11:44:38;33.20;62.00
14170;DHT22;7164;50.524;8.676;2022-07-23T11:47:07;33.20;62.80
14170;DHT22;7164;50.524;8.676;2022-07-23T11:49:33;33.20;62.50
14170;DHT22;7164;50.524;8.676;2022-07-23T11:52:07;33.20;61.90
14170;DHT22;7164;50.524;8.676;2022-07-23T11:54:35;33.20;61.80
14170;DHT22;7164;50.524;8.676;2022-07-23T11:57:02;33.20;62.40
14170;DHT22;7164;50.524;8.676;2022-07-23T11:59:31;33.20;61.40
14170;DHT22;7164;50.524;8.676;2022-07-23T12:02:02;33.00;62.00
14170;DHT22;7164;50.524;8.676;2022-07-23T12:04:43;32.90;62.30
14170;DHT22;7164;50.524;8.676;2022-07-23T12:07:32;32.80;62.60
14170;DHT22;7164;50.524;8.676;2022-07-23T12:10:03;32.70;62.60
14170;DHT22;7164;50.524;8.676;2022-07-23T12:12:39;32.70;62.70
14170;DHT22;7164;50.524;8.676;2022-07-23T12:15:06;32.70;61.60
14170;DHT22;7164;50.524;8.676;2022-07-23T12:17:35;31.80;62.30
14170;DHT22;7164;50.524;8.676;2022-07-23T12:20:04;31.60;64.50
14170;DHT22;7164;50.524;8.676;2022-07-23T12:22:40;31.70;64.30
14170;DHT22;7164;50.524;8.676;2022-07-23T12:25:12;31.90;63.50
14170;DHT22;7164;50.524;8.676;2022-07-23T12:27:38;32.00;62.80
14170;DHT22;7164;50.524;8.676;2022-07-23T12:30:26;32.00;62.10
14170;DHT22;7164;50.524;8.676;2022-07-23T12:32:55;32.30;62.00
14170;DHT22;7164;50.524;8.676;2022-07-23T12:35:22;32.20;63.00
14170;DHT22;7164;50.524;8.676;2022-07-23T12:37:50;32.30;62.30
14170;DHT22;7164;50.524;8.676;2022-07-23T12:40:37;32.40;62.00
14170;DHT22;7164;50.524;8.676;2022-07-23T12:43:10;32.30;61.70
14170;DHT22;7164;50.524;8.676;2022-07-23T12:45:44;32.20;61.00
14170;DHT22;7164;50.524;8.676;2022-07-23T12:48:25;32.20;62.60
14170;DHT22;7164;50.524;8.676;2022-07-23T12:50:53;32.00;61.40
14170;DHT22;7164;50.524;8.676;2022-07-23T12:53:28;32.10;62.00
14170;DHT22;7164;50.524;8.676;2022-07-23T12:56:10;32.00;61.70
14170;DHT22;7164;50.524;8.676;2022-07-23T12:58:51;32.10;60.30
14170;DHT22;7164;50.524;8.676;2022-07-23T13:06:24;31.80;60.30
14170;DHT22;7164;50.524;8.676;2022-07-23T13:08:50;31.50;61.60
14170;DHT22;7164;50.524;8.676;2022-07-23T13:11:16;31.50;61.60
14170;DHT22;7164;50.524;8.676;2022-07-23T13:13:41;31.40;62.00
14170;DHT22;7164;50.524;8.676;2022-07-23T13:16:07;31.40;59.50
14170;DHT22;7164;50.524;8.676;2022-07-23T13:18:33;31.30;61.40
14170;DHT22;7164;50.524;8.676;2022-07-23T13:20:59;31.20;61.10
14170;DHT22;7164;50.524;8.676;2022-07-23T13:23:25;31.30;60.60
14170;DHT22;7164;50.524;8.676;2022-07-23T13:25:51;31.00;59.20
14170;DHT22;7164;50.524;8.676;2022-07-23T13:28:18;30.40;60.80
14170;DHT22;7164;50.524;8.676;2022-07-23T13:30:45;30.50;61.30
14170;DHT22;7164;50.524;8.676;2022-07-23T13:33:11;30.60;60.40
14170;DHT22;7164;50.524;8.676;2022-07-23T13:35:37;30.70;60.00
14170;DHT22;7164;50.524;8.676;2022-07-23T13:38:04;30.80;59.40
14170;DHT22;7164;50.524;8.676;2022-07-23T13:40:30;30.80;59.70
14170;DHT22;7164;50.524;8.676;2022-07-23T13:42:56;30.90;60.20
14170;DHT22;7164;50.524;8.676;2022-07-23T13:45:21;31.00;60.10
14170;DHT22;7164;50.524;8.676;2022-07-23T13:47:47;30.90;60.30
14170;DHT22;7164;50.524;8.676;2022-07-23T13:50:13;31.00;59.80
14170;DHT22;7164;50.524;8.676;2022-07-23T13:52:41;30.90;59.10
14170;DHT22;7164;50.524;8.676;2022-07-23T13:55:08;30.80;59.70
14170;DHT22;7164;50.524;8.676;2022-07-23T13:57:34;30.80;59.60
14170;DHT22;7164;50.524;8.676;2022-07-23T13:59:59;30.80;59.10
14170;DHT22;7164;50.524;8.676;2022-07-23T14:02:25;30.70;59.50
14170;DHT22;7164;50.524;8.676;2022-07-23T14:04:52;30.70;59.20
14170;DHT22;7164;50.524;8.676;2022-07-23T14:07:18;30.70;58.70
14170;DHT22;7164;50.524;8.676;2022-07-23T14:09:44;30.60;59.80
14170;DHT22;7164;50.524;8.676;2022-07-23T14:12:10;30.70;60.50
14170;DHT22;7164;50.524;8.676;2022-07-23T14:14:36;30.60;60.70
14170;DHT22;7164;50.524;8.676;2022-07-23T14:17:01;30.60;61.00
14170;DHT22;7164;50.524;8.676;2022-07-23T14:19:28;30.70;60.60
14170;DHT22;7164;50.524;8.676;2022-07-23T14:21:53;30.60;60.00
14170;DHT22;7164;50.524;8.676;2022-07-23T14:24:19;30.70;60.20
14170;DHT22;7164;50.524;8.676;2022-07-23T14:26:44;30.90;60.10
14170;DHT22;7164;50.524;8.676;2022-07-23T14:29:11;31.00;59.80
14170;DHT22;7164;50.524;8.676;2022-07-23T14:31:37;30.90;60.60
14170;DHT22;7164;50.524;8.676;2022-07-23T14:34:02;30.80;60.40
14170;DHT22;7164;50.524;8.676;2022-07-23T14:36:28;30.80;61.20
14170;DHT22;7164;50.524;8.676;2022-07-23T14:38:54;30.60;60.50
14170;DHT22;7164;50.524;8.676;2022-07-23T14:41:20;30.50;60.00
14170;DHT22;7164;50.524;8.676;2022-07-23T14:43:45;30.60;59.20
14170;DHT22;7164;50.524;8.676;2022-07-23T14:46:12;30.60;59.20
14170;DHT22;7164;50.524;8.676;2022-07-23T14:48:38;30.60;60.70
14170;DHT22;7164;50.524;8.676;2022-07-23T14:51:04;30.60;60.60
14170;DHT22;7164;50.524;8.676;2022-07-23T14:53:30;30.60;60.80
14170;DHT22;7164;50.524;8.676;2022-07-23T14:55:56;30.80;60.40
14170;DHT22;7164;50.524;8.676;2022-07-23T14:58:23;30.80;59.90
14170;DHT22;7164;50.524;8.676;2022-07-23T15:00:49;30.90;60.00
14170;DHT22;7164;50.524;8.676;2022-07-23T15:03:15;30.90;59.90
14170;DHT22;7164;50.524;8.676;2022-07-23T15:05:40;31.00;60.00
14170;DHT22;7164;50.524;8.676;2022-07-23T15:08:06;31.00;60.10
14170;DHT22;7164;50.524;8.676;2022-07-23T15:10:32;31.00;59.90
14170;DHT22;7164;50.524;8.676;2022-07-23T15:12:57;30.80;60.70
14170;DHT22;7164;50.524;8.676;2022-07-23T15:15:23;30.80;60.40
14170;DHT22;7164;50.524;8.676;2022-07-23T15:17:49;30.80;60.00
14170;DHT22;7164;50.524;8.676;2022-07-23T15:20:14;30.90;60.30
14170;DHT22;7164;50.524;8.676;2022-07-23T15:22:40;31.00;60.10
14170;DHT22;7164;50.524;8.676;2022-07-23T15:25:06;31.00;60.90
14170;DHT22;7164;50.524;8.676;2022-07-23T15:27:32;31.10;60.70
14170;DHT22;7164;50.524;8.676;2022-07-23T15:29:57;31.10;59.70
14170;DHT22;7164;50.524;8.676;2022-07-23T15:32:23;31.00;59.10
14170;DHT22;7164;50.524;8.676;2022-07-23T15:34:52;31.00;58.80
14170;DHT22;7164;50.524;8.676;2022-07-23T15:37:17;30.90;60.00
14170;DHT22;7164;50.524;8.676;2022-07-23T15:39:43;30.90;59.90
14170;DHT22;7164;50.524;8.676;2022-07-23T15:42:09;30.80;60.40
14170;DHT22;7164;50.524;8.676;2022-07-23T15:44:34;30.60;61.00
14170;DHT22;7164;50.524;8.676;2022-07-23T15:47:00;30.60;60.20
14170;DHT22;7164;50.524;8.676;2022-07-23T15:49:27;30.50;60.70
14170;DHT22;7164;50.524;8.676;2022-07-23T15:51:53;30.40;60.30
14170;DHT22;7164;50.524;8.676;2022-07-23T15:54:20;30.30;59.30
14170;DHT22;7164;50.524;8.676;2022-07-23T15:56:46;30.40;59.70
14170;DHT22;7164;50.524;8.676;2022-07-23T15:59:12;30.40;60.00
14170;DHT22;7164;50.524;8.676;2022-07-23T16:01:37;30.40;60.00
14170;DHT22;7164;50.524;8.676;2022-07-23T16:04:03;30.20;59.70
14170;DHT22;7164;50.524;8.676;2022-07-23T16:06:32;30.10;59.70
14170;DHT22;7164;50.524;8.676;2022-07-23T16:08:57;30.10;59.60
14170;DHT22;7164;50.524;8.676;2022-07-23T16:11:24;30.00;59.90
14170;DHT22;7164;50.524;8.676;2022-07-23T16:13:50;30.00;60.90
14170;DHT22;7164;50.524;8.676;2022-07-23T16:16:15;30.00;61.30
14170;DHT22;7164;50.524;8.676;2022-07-23T16:18:41;29.90;62.20
14170;DHT22;7164;50.524;8.676;2022-07-23T16:21:06;29.70;61.60
14170;DHT22;7164;50.524;8.676;2022-07-23T16:23:32;29.50;61.70
14170;DHT22;7164;50.524;8.676;2022-07-23T16:25:58;29.20;62.70
14170;DHT22;7164;50.524;8.676;2022-07-23T16:28:24;29.20;63.00
14170;DHT22;7164;50.524;8.676;2022-07-23T16:30:50;29.20;63.20
14170;DHT22;7164;50.524;8.676;2022-07-23T16:33:15;29.20;63.30